createdAt,value
2022-09-14T00:00:44.442Z,18.78
2022-09-14T00:06:09.412Z,18.73
2022-09-14T00:11:01.664Z,18.75
2022-09-14T00:16:01.571Z,18.75
2022-09-14T00:21:01.541Z,18.77
2022-09-14T00:26:01.504Z,18.78
2022-09-14T00:31:01.436Z,18.80
2022-09-14T00:36:01.356Z,18.83
2022-09-14T00:41:01.256Z,18.84
2022-09-14T00:46:01.286Z,18.83
2022-09-14T00:51:01.131Z,18.81
2022-09-14T00:56:01.055Z,18.75
2022-09-14T01:01:01.013Z,18.74
2022-09-14T01:06:00.929Z,18.74
2022-09-14T01:11:00.943Z,18.73
2022-09-14T01:16:00.934Z,18.77
2022-09-14T01:21:01.400Z,18.78
2022-09-14T01:26:00.674Z,18.81
2022-09-14T01:31:00.589Z,18.86
2022-09-14T01:36:00.555Z,18.88
2022-09-14T01:41:00.454Z,18.92
2022-09-14T01:46:00.534Z,18.93
2022-09-14T01:51:00.342Z,18.92
2022-09-14T01:56:00.307Z,18.90
2022-09-14T02:01:00.274Z,18.89
2022-09-14T02:06:00.137Z,18.89
2022-09-14T02:11:00.058Z,18.89
2022-09-14T02:16:00.037Z,18.89
2022-09-14T02:20:59.928Z,18.88
2022-09-14T02:25:59.907Z,18.88
2022-09-14T02:30:59.837Z,18.88
2022-09-14T02:35:59.743Z,18.89
2022-09-14T02:40:59.768Z,18.89
2022-09-14T02:45:59.588Z,18.86
2022-09-14T02:50:59.580Z,18.84
2022-09-14T02:55:59.459Z,18.86
2022-09-14T03:00:59.462Z,18.84
2022-09-14T03:05:59.363Z,18.86
2022-09-14T03:10:59.283Z,18.88
2022-09-14T03:15:59.216Z,18.81
2022-09-14T03:20:59.127Z,18.77
2022-09-14T03:25:59.067Z,18.78
2022-09-14T03:30:59.054Z,18.77
2022-09-14T03:35:58.973Z,18.77
2022-09-14T03:40:58.919Z,18.75
2022-09-14T03:45:58.783Z,18.73
2022-09-14T03:50:58.727Z,18.74
2022-09-14T03:55:58.665Z,18.66
2022-09-14T04:00:58.614Z,18.65
2022-09-14T04:05:58.536Z,18.68
2022-09-14T04:10:58.469Z,18.70
2022-09-14T04:16:07.508Z,18.63
2022-09-14T04:21:03.355Z,18.65
2022-09-14T04:26:01.318Z,18.63
2022-09-14T04:31:00.257Z,18.60
2022-09-14T04:36:00.164Z,18.59
2022-09-14T04:41:00.218Z,18.58
2022-09-14T04:46:00.100Z,18.55
2022-09-14T04:50:59.973Z,18.52
2022-09-14T04:55:59.983Z,18.56
2022-09-14T05:00:59.824Z,18.56
2022-09-14T05:05:59.796Z,18.56
2022-09-14T05:10:59.733Z,18.55
2022-09-14T05:15:59.669Z,18.55
2022-09-14T05:21:00.248Z,18.53
2022-09-14T05:25:59.510Z,18.50
2022-09-14T05:30:59.431Z,18.52
2022-09-14T05:35:59.372Z,18.53
2022-09-14T05:40:59.379Z,18.56
2022-09-14T05:45:59.274Z,18.55
2022-09-14T05:50:59.165Z,18.53
2022-09-14T05:55:59.105Z,18.60
2022-09-14T06:00:59.068Z,18.60
2022-09-14T06:05:59.096Z,18.63
2022-09-14T06:10:59.344Z,18.65
2022-09-14T06:15:59.048Z,18.59
2022-09-14T06:20:58.927Z,18.62
2022-09-14T06:25:58.799Z,18.66
2022-09-14T06:30:58.665Z,18.70
2022-09-14T06:35:58.719Z,18.84
2022-09-14T06:40:58.759Z,18.92
2022-09-14T06:45:58.476Z,18.99
2022-09-14T06:50:58.502Z,19.02
2022-09-14T06:55:58.400Z,19.02
2022-09-14T07:00:58.934Z,19.07
2022-09-14T07:05:58.184Z,19.15
2022-09-14T07:10:58.248Z,19.14
2022-09-14T07:15:58.444Z,19.11
2022-09-14T07:21:00.359Z,19.02
2022-09-14T07:25:58.947Z,18.96
2022-09-14T07:30:59.087Z,18.95
2022-09-14T07:35:57.802Z,18.93
2022-09-14T07:40:57.714Z,18.89
2022-09-14T07:45:57.807Z,18.93
2022-09-14T07:50:57.688Z,18.92
2022-09-14T07:55:57.562Z,18.99
2022-09-14T08:00:57.607Z,19.08
2022-09-14T08:05:57.408Z,19.14
2022-09-14T08:10:57.297Z,19.11
2022-09-14T08:15:57.254Z,19.14
2022-09-14T08:20:57.230Z,19.22
2022-09-14T08:25:57.188Z,19.31
2022-09-14T08:30:57.075Z,19.29
2022-09-14T08:35:58.293Z,19.30
2022-09-14T08:40:56.941Z,19.34
2022-09-14T08:45:56.945Z,19.49
2022-09-14T08:50:56.789Z,19.76
2022-09-14T08:55:56.784Z,19.96
2022-09-14T09:00:56.726Z,20.29
2022-09-14T09:05:56.626Z,20.26
2022-09-14T09:10:56.656Z,20.18
2022-09-14T09:15:56.548Z,20.36
2022-09-14T09:20:56.438Z,21.35
2022-09-14T09:25:56.375Z,22.38
2022-09-14T09:30:56.402Z,22.35
2022-09-14T09:35:56.215Z,23.58
2022-09-14T09:40:56.135Z,23.78
2022-09-14T09:45:56.061Z,24.02
2022-09-14T09:50:56.203Z,23.40
2022-09-14T09:55:56.023Z,22.35
2022-09-14T10:00:55.995Z,22.07
2022-09-14T10:05:55.869Z,22.75
2022-09-14T10:10:55.878Z,23.71
2022-09-14T10:15:55.759Z,23.15
2022-09-14T10:20:55.595Z,22.69
2022-09-14T10:25:55.575Z,22.13
2022-09-14T10:30:55.525Z,21.67
2022-09-14T10:35:55.477Z,21.25
2022-09-14T10:40:55.401Z,21.00
2022-09-14T10:45:55.288Z,20.81
2022-09-14T10:50:55.215Z,20.63
2022-09-14T10:55:55.174Z,20.47
2022-09-14T11:00:55.129Z,20.40
2022-09-14T11:05:55.069Z,20.34
2022-09-14T11:10:54.981Z,20.51
2022-09-14T11:15:54.933Z,20.93
2022-09-14T11:20:54.807Z,21.48
2022-09-14T11:25:54.750Z,21.93
2022-09-14T11:30:54.757Z,22.29
2022-09-14T11:35:54.592Z,22.50
2022-09-14T11:40:54.569Z,22.83
2022-09-14T11:45:54.543Z,22.70
2022-09-14T11:50:54.396Z,22.50
2022-09-14T11:55:54.353Z,22.43
2022-09-14T12:00:54.303Z,21.99
2022-09-14T12:05:54.207Z,21.70
2022-09-14T12:10:54.173Z,21.52
2022-09-14T12:15:54.296Z,21.43
2022-09-14T12:20:54.223Z,21.36
2022-09-14T12:25:53.975Z,21.39
2022-09-14T12:30:53.963Z,21.45
2022-09-14T12:35:53.957Z,21.48
2022-09-14T12:40:53.801Z,21.62
2022-09-14T12:45:53.743Z,21.83
2022-09-14T12:50:53.617Z,21.61
2022-09-14T12:55:53.565Z,21.48
2022-09-14T13:00:53.487Z,21.73
2022-09-14T13:05:54.252Z,21.96
2022-09-14T13:10:53.366Z,21.98
2022-09-14T13:15:53.442Z,22.02
2022-09-14T13:20:53.225Z,21.91
2022-09-14T13:25:53.162Z,21.85
2022-09-14T13:30:53.141Z,21.83
2022-09-14T13:35:53.041Z,21.79
2022-09-14T13:40:52.958Z,21.51
2022-09-14T13:45:52.923Z,20.99
2022-09-14T13:50:52.841Z,20.80
2022-09-14T13:55:52.790Z,20.77
2022-09-14T14:00:52.741Z,20.81
2022-09-14T14:05:52.702Z,20.77
2022-09-14T14:10:52.558Z,20.69
2022-09-14T14:15:52.511Z,20.66
2022-09-14T14:20:52.445Z,20.65
2022-09-14T14:25:52.362Z,20.56
2022-09-14T14:30:52.308Z,20.51
2022-09-14T14:35:52.259Z,20.44
2022-09-14T14:40:52.431Z,20.39
2022-09-14T14:45:52.194Z,20.36
2022-09-14T14:50:52.029Z,20.39
2022-09-14T14:55:52.076Z,20.50
2022-09-14T15:00:51.984Z,20.47
2022-09-14T15:05:51.840Z,20.47
2022-09-14T15:10:51.871Z,20.48
2022-09-14T15:15:51.725Z,20.40
2022-09-14T15:20:51.636Z,20.29
2022-09-14T15:25:51.586Z,20.22
2022-09-14T15:30:51.533Z,20.11
2022-09-14T15:35:51.445Z,20.03
2022-09-14T15:40:51.538Z,19.91
2022-09-14T15:45:51.356Z,19.84
2022-09-14T15:50:51.261Z,19.76
2022-09-14T15:55:51.155Z,19.70
2022-09-14T16:00:51.198Z,19.56
2022-09-14T16:05:51.143Z,19.51
2022-09-14T16:10:50.976Z,19.40
2022-09-14T16:15:51.666Z,19.40
2022-09-14T16:20:50.839Z,19.41
2022-09-14T16:25:50.796Z,19.41
2022-09-14T16:30:50.705Z,19.40
2022-09-14T16:35:50.698Z,19.41
2022-09-14T16:40:50.569Z,19.36
2022-09-14T16:45:50.563Z,19.29
2022-09-14T16:50:50.454Z,19.22
2022-09-14T16:55:50.385Z,19.19
2022-09-14T17:00:51.289Z,19.11
2022-09-14T17:05:50.268Z,19.09
2022-09-14T17:10:50.184Z,18.98
2022-09-14T17:15:50.239Z,18.96
2022-09-14T17:20:50.181Z,18.95
2022-09-14T17:25:50.005Z,18.84
2022-09-14T17:30:49.962Z,18.77
2022-09-14T17:35:49.890Z,18.70
2022-09-14T17:40:49.979Z,18.62
2022-09-14T17:45:49.759Z,18.63
2022-09-14T17:50:49.657Z,18.66
2022-09-14T17:55:49.630Z,18.60
2022-09-14T18:00:49.558Z,18.52
2022-09-14T18:05:49.632Z,18.40
2022-09-14T18:10:49.388Z,18.29
2022-09-14T18:15:49.335Z,18.26
2022-09-14T18:20:49.252Z,18.22
2022-09-14T18:25:49.188Z,18.00
2022-09-14T18:30:49.328Z,18.00
2022-09-14T18:35:49.099Z,17.97
2022-09-14T18:40:49.143Z,17.97
2022-09-14T18:45:48.933Z,17.97
2022-09-14T18:50:48.892Z,17.87
2022-09-14T18:55:48.781Z,17.85
2022-09-14T19:00:49.702Z,17.78
2022-09-14T19:05:48.618Z,17.74
2022-09-14T19:10:48.574Z,17.78
2022-09-14T19:15:48.575Z,17.86
2022-09-14T19:21:05.851Z,17.92
2022-09-14T19:25:50.335Z,17.94
2022-09-14T19:30:48.352Z,17.90
2022-09-14T19:35:48.239Z,17.79
2022-09-14T19:40:48.171Z,17.78
2022-09-14T19:45:48.125Z,17.85
2022-09-14T19:50:48.066Z,17.87
2022-09-14T19:55:48.039Z,17.80
2022-09-14T20:00:49.306Z,17.72
2022-09-14T20:05:47.851Z,17.76
2022-09-14T20:10:47.918Z,17.70
2022-09-14T20:15:47.898Z,17.70
2022-09-14T20:20:47.683Z,17.72
2022-09-14T20:25:47.617Z,17.74
2022-09-14T20:30:47.575Z,17.67
2022-09-14T20:35:48.690Z,17.63
2022-09-14T20:40:47.521Z,17.65
2022-09-14T20:45:47.328Z,17.67
2022-09-14T20:50:47.241Z,17.68
2022-09-14T20:55:47.215Z,17.68
2022-09-14T21:00:47.221Z,17.60
2022-09-14T21:05:47.057Z,17.64
2022-09-14T21:10:46.990Z,17.57
2022-09-14T21:15:46.970Z,17.51
2022-09-14T21:20:46.909Z,17.54
2022-09-14T21:25:46.789Z,17.57
2022-09-14T21:30:46.764Z,17.59
2022-09-14T21:35:46.676Z,17.52
2022-09-14T21:40:46.584Z,17.54
2022-09-14T21:45:46.603Z,17.42
2022-09-14T21:50:47.517Z,17.41
2022-09-14T21:55:46.411Z,17.36
2022-09-14T22:00:46.326Z,17.34
2022-09-14T22:05:46.248Z,17.23
2022-09-14T22:10:46.218Z,17.23
2022-09-14T22:15:46.228Z,17.16
2022-09-14T22:20:46.053Z,17.08
2022-09-14T22:25:45.993Z,17.09
2022-09-14T22:30:45.977Z,17.11
2022-09-14T22:35:45.909Z,17.15
2022-09-14T22:40:45.841Z,17.09
2022-09-14T22:45:45.764Z,17.02
2022-09-14T22:50:45.657Z,16.90
2022-09-14T22:55:45.577Z,16.81
2022-09-14T23:00:45.513Z,16.69
2022-09-14T23:05:45.451Z,16.69
2022-09-14T23:10:45.395Z,16.65
2022-09-14T23:15:45.321Z,16.61
2022-09-14T23:20:45.275Z,16.57
2022-09-14T23:25:45.185Z,16.60
2022-09-14T23:30:45.282Z,16.57
2022-09-14T23:35:45.049Z,16.58
2022-09-14T23:40:45.014Z,16.53
2022-09-14T23:45:44.983Z,16.50
2022-09-14T23:50:44.866Z,16.50
2022-09-14T23:55:44.853Z,16.38
